createdAt,value
2018-03-03T00:02:13.970Z,99.90
2018-03-03T00:04:44.345Z,99.90
2018-03-03T00:07:14.578Z,99.90
2018-03-03T00:09:44.786Z,99.90
2018-03-03T00:12:15.484Z,99.90
2018-03-03T00:14:45.771Z,99.90
2018-03-03T00:17:16.943Z,99.90
2018-03-03T00:19:48.778Z,99.90
2018-03-03T00:22:26.556Z,99.90
2018-03-03T00:24:58.693Z,99.90
2018-03-03T00:27:29.295Z,99.90
2018-03-03T00:30:01.450Z,99.90
2018-03-03T00:32:31.787Z,99.90
2018-03-03T00:35:02.010Z,99.90
2018-03-03T00:37:32.451Z,99.90
2018-03-03T00:40:03.389Z,99.90
2018-03-03T00:42:33.672Z,99.90
2018-03-03T00:45:03.631Z,99.90
2018-03-03T00:47:34.303Z,99.90
2018-03-03T00:50:05.240Z,99.90
2018-03-03T00:52:36.007Z,99.90
2018-03-03T00:55:07.065Z,99.90
2018-03-03T00:57:38.331Z,99.90
2018-03-03T01:00:08.711Z,99.90
2018-03-03T01:02:40.044Z,99.90
2018-03-03T01:05:10.486Z,99.90
2018-03-03T01:07:42.351Z,99.90
2018-03-03T01:10:12.638Z,99.90
2018-03-03T01:12:42.963Z,99.90
2018-03-03T01:15:13.067Z,99.90
2018-03-03T01:17:43.380Z,99.90
2018-03-03T01:20:13.560Z,99.90
2018-03-03T01:22:44.347Z,99.90
2018-03-03T01:25:14.554Z,99.90
2018-03-03T01:27:44.790Z,99.90
2018-03-03T01:30:14.947Z,99.90
2018-03-03T01:32:46.700Z,99.90
2018-03-03T01:35:17.815Z,99.90
2018-03-03T01:37:48.007Z,99.90
2018-03-03T01:40:18.739Z,99.90
2018-03-03T01:42:48.995Z,99.90
2018-03-03T01:45:19.720Z,99.90
2018-03-03T01:47:50.487Z,99.90
2018-03-03T01:50:20.703Z,99.90
2018-03-03T01:52:51.119Z,99.90
2018-03-03T01:55:22.071Z,99.90
2018-03-03T01:57:58.163Z,99.90
2018-03-03T02:00:29.074Z,99.90
2018-03-03T02:03:00.149Z,99.90
2018-03-03T02:05:30.694Z,99.90
2018-03-03T02:08:00.913Z,99.90
2018-03-03T02:10:31.274Z,99.90
2018-03-03T02:13:01.832Z,99.90
2018-03-03T02:15:33.008Z,99.90
2018-03-03T02:18:03.324Z,99.90
2018-03-03T02:20:33.863Z,99.90
2018-03-03T02:23:04.700Z,99.90
2018-03-03T02:25:35.326Z,99.90
2018-03-03T02:28:05.539Z,99.90
2018-03-03T02:30:36.541Z,99.90
2018-03-03T02:33:08.637Z,99.90
2018-03-03T02:35:39.278Z,99.90
2018-03-03T02:38:10.314Z,99.90
2018-03-03T02:40:40.884Z,99.90
2018-03-03T02:43:11.390Z,99.90
2018-03-03T02:45:41.900Z,99.90
2018-03-03T02:48:12.426Z,99.90
2018-03-03T02:50:42.902Z,99.90
2018-03-03T02:53:13.121Z,99.90
2018-03-03T02:55:43.810Z,99.90
2018-03-03T02:58:14.333Z,99.90
2018-03-03T03:00:44.477Z,99.90
2018-03-03T03:03:14.721Z,99.90
2018-03-03T03:05:45.507Z,99.90
2018-03-03T03:08:16.157Z,99.90
2018-03-03T03:10:46.322Z,99.90
2018-03-03T03:13:16.649Z,99.90
2018-03-03T03:15:47.518Z,99.90
2018-03-03T03:18:18.044Z,99.90
2018-03-03T03:20:48.282Z,99.90
2018-03-03T03:23:18.610Z,99.90
2018-03-03T03:25:48.720Z,99.90
2018-03-03T03:28:19.360Z,99.90
2018-03-03T03:30:49.766Z,99.90
2018-03-03T03:33:20.626Z,99.90
2018-03-03T03:35:51.238Z,99.90
2018-03-03T03:38:21.555Z,99.90
2018-03-03T03:40:51.678Z,99.90
2018-03-03T03:43:21.987Z,99.90
2018-03-03T03:45:52.528Z,99.90
2018-03-03T03:48:22.582Z,99.90
2018-03-03T03:50:52.827Z,99.90
2018-03-03T03:53:23.111Z,99.90
2018-03-03T03:55:53.724Z,99.90
2018-03-03T03:58:23.821Z,99.90
2018-03-03T04:00:54.099Z,99.90
2018-03-03T04:03:24.631Z,99.90
2018-03-03T04:05:55.262Z,99.90
2018-03-03T04:08:25.487Z,99.90
2018-03-03T04:10:57.449Z,99.90
2018-03-03T04:13:28.203Z,99.90
2018-03-03T04:15:59.175Z,99.90
2018-03-03T04:18:29.209Z,99.90
2018-03-03T04:20:59.711Z,99.90
2018-03-03T04:23:30.139Z,99.90
2018-03-03T04:26:00.619Z,99.90
2018-03-03T04:28:30.962Z,99.90
2018-03-03T04:31:01.291Z,99.90
2018-03-03T04:33:32.558Z,99.90
2018-03-03T04:36:03.167Z,99.90
2018-03-03T04:38:33.981Z,99.90
2018-03-03T04:41:04.653Z,99.90
2018-03-03T04:43:35.144Z,99.90
2018-03-03T04:46:06.615Z,99.90
2018-03-03T04:48:37.568Z,99.90
2018-03-03T04:51:08.583Z,99.90
2018-03-03T04:53:39.138Z,99.90
2018-03-03T04:56:09.366Z,99.90
2018-03-03T04:58:39.493Z,99.90
2018-03-03T05:01:11.771Z,99.90
2018-03-03T05:03:43.360Z,99.90
2018-03-03T05:06:14.747Z,99.90
2018-03-03T05:08:44.980Z,99.90
2018-03-03T05:11:15.620Z,99.90
2018-03-03T05:13:46.146Z,99.90
2018-03-03T05:16:16.923Z,99.90
2018-03-03T05:18:47.040Z,99.90
2018-03-03T05:21:17.648Z,99.90
2018-03-03T05:23:50.317Z,99.90
2018-03-03T05:26:24.090Z,99.90
2018-03-03T05:28:54.570Z,99.90
2018-03-03T05:31:26.123Z,99.90
2018-03-03T05:33:57.313Z,99.90
2018-03-03T05:36:28.265Z,99.90
2018-03-03T05:38:59.511Z,99.90
2018-03-03T05:41:30.187Z,99.90
2018-03-03T05:44:00.614Z,99.90
2018-03-03T05:46:30.956Z,99.90
2018-03-03T05:49:08.851Z,99.90
2018-03-03T05:51:45.862Z,99.90
2018-03-03T05:54:20.057Z,99.90
2018-03-03T05:56:55.797Z,99.90
2018-03-03T05:59:26.708Z,99.90
2018-03-03T06:01:59.064Z,99.90
2018-03-03T06:04:29.611Z,99.90
2018-03-03T06:07:00.335Z,99.90
2018-03-03T06:09:30.747Z,99.90
2018-03-03T06:12:01.476Z,99.90
2018-03-03T06:14:31.523Z,99.90
2018-03-03T06:17:01.836Z,99.90
2018-03-03T06:19:33.986Z,99.90
2018-03-03T06:22:04.286Z,99.90
2018-03-03T06:24:34.658Z,99.90
2018-03-03T06:27:05.027Z,99.90
2018-03-03T06:29:36.770Z,99.90
2018-03-03T06:32:07.210Z,99.90
2018-03-03T06:34:37.691Z,99.90
2018-03-03T06:37:07.854Z,99.90
2018-03-03T06:39:38.758Z,99.90
2018-03-03T06:42:09.571Z,99.90
2018-03-03T06:44:40.107Z,99.90
2018-03-03T06:47:10.835Z,99.90
2018-03-03T06:49:41.478Z,99.90
2018-03-03T06:52:11.690Z,99.90
2018-03-03T06:54:43.707Z,99.90
2018-03-03T06:57:14.025Z,99.90
2018-03-03T06:59:44.950Z,99.90
2018-03-03T07:02:15.491Z,99.90
2018-03-03T07:04:46.354Z,99.90
2018-03-03T07:07:16.355Z,99.90
2018-03-03T07:09:47.438Z,99.90
2018-03-03T07:12:17.527Z,99.90
2018-03-03T07:14:47.727Z,99.90
2018-03-03T07:17:18.674Z,99.90
2018-03-03T07:19:49.002Z,99.90
2018-03-03T07:22:19.259Z,99.90
2018-03-03T07:24:50.483Z,99.90
2018-03-03T07:27:20.810Z,99.90
2018-03-03T07:29:51.103Z,99.90
2018-03-03T07:32:21.374Z,99.90
2018-03-03T07:34:52.556Z,99.90
2018-03-03T07:37:22.811Z,99.90
2018-03-03T07:39:53.839Z,99.90
2018-03-03T07:42:24.781Z,99.90
2018-03-03T07:44:54.778Z,99.90
2018-03-03T07:47:25.316Z,99.90
2018-03-03T07:49:55.840Z,99.90
2018-03-03T07:52:26.825Z,99.90
2018-03-03T07:54:57.082Z,99.90
2018-03-03T07:57:27.989Z,99.90
2018-03-03T07:59:58.129Z,99.90
2018-03-03T08:02:29.519Z,99.90
2018-03-03T08:04:59.898Z,99.90
2018-03-03T08:07:31.452Z,99.90
2018-03-03T08:10:01.888Z,99.90
2018-03-03T08:12:32.775Z,99.90
2018-03-03T08:15:03.091Z,99.90
2018-03-03T08:17:34.199Z,99.90
2018-03-03T08:20:04.745Z,99.90
2018-03-03T08:22:35.459Z,99.90
2018-03-03T08:25:05.692Z,99.90
2018-03-03T08:27:35.709Z,99.90
2018-03-03T08:30:05.972Z,99.90
2018-03-03T08:32:36.675Z,99.90
2018-03-03T08:35:06.702Z,99.90
2018-03-03T08:37:36.900Z,99.90
2018-03-03T08:40:07.114Z,99.90
2018-03-03T08:42:37.494Z,99.90
2018-03-03T08:45:07.851Z,99.90
2018-03-03T08:47:38.538Z,99.90
2018-03-03T08:50:08.871Z,99.90
2018-03-03T08:52:39.088Z,99.90
2018-03-03T08:55:09.319Z,99.90
2018-03-03T08:57:39.437Z,99.90
2018-03-03T09:00:09.888Z,99.90
2018-03-03T09:02:40.702Z,99.90
2018-03-03T09:05:11.055Z,99.90
2018-03-03T09:07:41.039Z,99.90
2018-03-03T09:10:11.470Z,99.90
2018-03-03T09:12:42.238Z,99.90
2018-03-03T09:15:12.866Z,99.90
2018-03-03T09:17:42.869Z,99.90
2018-03-03T09:20:13.422Z,99.90
2018-03-03T09:22:43.524Z,99.90
2018-03-03T09:25:13.654Z,99.90
2018-03-03T09:27:43.795Z,99.90
2018-03-03T09:30:13.856Z,99.90
2018-03-03T09:32:44.775Z,99.90
2018-03-03T09:35:14.926Z,99.90
2018-03-03T09:37:45.289Z,99.90
2018-03-03T09:40:15.706Z,99.90
2018-03-03T09:42:45.743Z,99.90
2018-03-03T09:45:15.814Z,99.90
2018-03-03T09:47:46.197Z,99.90
2018-03-03T09:50:16.576Z,99.90
2018-03-03T09:52:46.755Z,99.90
2018-03-03T09:55:17.305Z,99.90
2018-03-03T09:57:48.176Z,99.90
2018-03-03T10:00:18.387Z,99.90
2018-03-03T10:02:48.655Z,99.90
2018-03-03T10:05:19.107Z,99.90
2018-03-03T10:07:50.180Z,99.90
2018-03-03T10:10:20.619Z,99.90
2018-03-03T10:12:50.919Z,99.90
2018-03-03T10:15:21.069Z,99.90
2018-03-03T10:17:51.191Z,99.90
2018-03-03T10:20:21.656Z,99.90
2018-03-03T10:22:51.780Z,99.90
2018-03-03T10:25:23.050Z,99.90
2018-03-03T10:27:53.456Z,99.90
2018-03-03T10:30:24.231Z,98.90
2018-03-03T10:32:54.521Z,99.00
2018-03-03T10:35:25.599Z,99.30
2018-03-03T10:37:55.618Z,99.40
2018-03-03T10:40:26.447Z,99.20
2018-03-03T10:42:57.331Z,99.40
2018-03-03T10:45:28.326Z,98.30
2018-03-03T10:47:58.338Z,98.20
2018-03-03T10:50:28.533Z,98.50
2018-03-03T10:52:58.627Z,96.90
2018-03-03T10:55:29.443Z,98.30
2018-03-03T10:57:59.874Z,98.30
2018-03-03T11:00:29.920Z,97.60
2018-03-03T11:03:00.749Z,99.20
2018-03-03T11:05:31.604Z,98.00
2018-03-03T11:08:01.722Z,98.00
2018-03-03T11:10:31.754Z,97.30
2018-03-03T11:13:01.796Z,97.80
2018-03-03T11:15:31.947Z,99.90
2018-03-03T11:18:02.078Z,99.40
2018-03-03T11:20:32.430Z,97.90
2018-03-03T11:23:02.482Z,98.80
2018-03-03T11:25:32.558Z,99.00
2018-03-03T11:28:02.654Z,97.40
2018-03-03T11:30:33.751Z,97.40
2018-03-03T11:33:03.903Z,97.40
2018-03-03T11:35:33.935Z,96.80
2018-03-03T11:38:04.712Z,96.60
2018-03-03T11:40:34.817Z,96.50
2018-03-03T11:43:06.475Z,96.50
2018-03-03T11:45:36.524Z,96.50
2018-03-03T11:48:06.859Z,97.40
2018-03-03T11:50:36.862Z,96.20
2018-03-03T11:53:07.072Z,95.40
2018-03-03T11:55:37.363Z,95.80
2018-03-03T11:58:07.710Z,93.20
2018-03-03T12:00:37.772Z,95.80
2018-03-03T12:03:07.954Z,94.60
2018-03-03T12:05:38.514Z,96.60
2018-03-03T12:08:08.699Z,95.00
2018-03-03T12:10:38.826Z,94.10
2018-03-03T12:13:08.915Z,94.20
2018-03-03T12:15:39.313Z,95.90
2018-03-03T12:18:09.465Z,95.50
2018-03-03T12:20:39.686Z,94.80
2018-03-03T12:23:09.839Z,94.70
2018-03-03T12:25:40.138Z,94.30
2018-03-03T12:28:10.378Z,93.50
2018-03-03T12:30:40.486Z,93.90
2018-03-03T12:33:10.585Z,94.40
2018-03-03T12:35:40.993Z,92.50
2018-03-03T12:38:11.872Z,94.70
2018-03-03T12:40:41.971Z,94.80
2018-03-03T12:43:13.064Z,92.60
2018-03-03T12:45:43.524Z,92.50
2018-03-03T12:48:13.727Z,93.90
2018-03-03T12:50:44.528Z,94.10
2018-03-03T12:53:14.862Z,94.10
2018-03-03T12:55:45.058Z,92.70
2018-03-03T12:58:15.108Z,92.10
2018-03-03T13:00:45.117Z,93.20
2018-03-03T13:03:16.386Z,93.10
2018-03-03T13:05:46.385Z,93.70
2018-03-03T13:08:16.715Z,92.10
2018-03-03T13:10:47.204Z,93.00
2018-03-03T13:13:17.335Z,93.20
2018-03-03T13:15:54.292Z,93.30
2018-03-03T13:18:27.219Z,94.40
2018-03-03T13:20:57.535Z,94.40
2018-03-03T13:23:27.614Z,94.30
2018-03-03T13:25:57.620Z,94.80
2018-03-03T13:28:27.702Z,93.90
2018-03-03T13:30:58.152Z,94.10
2018-03-03T13:33:28.440Z,94.20
2018-03-03T13:35:58.616Z,94.30
2018-03-03T13:38:28.943Z,95.70
2018-03-03T13:40:58.997Z,96.50
2018-03-03T13:43:29.024Z,96.20
2018-03-03T13:45:59.024Z,95.70
2018-03-03T13:48:29.423Z,96.30
2018-03-03T13:50:59.517Z,96.10
2018-03-03T13:53:30.468Z,95.40
2018-03-03T13:56:00.586Z,95.40
2018-03-03T13:58:30.907Z,95.60
2018-03-03T14:01:01.072Z,96.30
2018-03-03T14:03:31.223Z,96.40
2018-03-03T14:06:01.979Z,97.10
2018-03-03T14:08:32.404Z,97.10
2018-03-03T14:11:02.462Z,96.50
2018-03-03T14:13:33.008Z,96.90
2018-03-03T14:16:05.218Z,96.40
2018-03-03T14:18:35.293Z,96.40
2018-03-03T14:21:06.398Z,97.20
2018-03-03T14:23:36.513Z,97.30
2018-03-03T14:26:06.669Z,97.00
2018-03-03T14:28:37.087Z,97.00
2018-03-03T14:31:09.050Z,97.50
2018-03-03T14:33:39.529Z,97.50
2018-03-03T14:36:09.728Z,97.40
2018-03-03T14:38:42.484Z,97.50
2018-03-03T14:41:12.792Z,97.40
2018-03-03T14:43:43.020Z,97.00
2018-03-03T14:46:13.320Z,97.70
2018-03-03T14:48:44.420Z,97.60
2018-03-03T14:51:17.968Z,97.50
2018-03-03T14:53:48.968Z,98.00
2018-03-03T14:56:19.315Z,98.10
2018-03-03T14:58:49.615Z,98.10
2018-03-03T15:01:19.965Z,98.40
2018-03-03T15:03:50.457Z,98.40
2018-03-03T15:06:20.518Z,98.60
2018-03-03T15:08:51.133Z,99.00
2018-03-03T15:11:21.407Z,99.20
2018-03-03T15:13:51.605Z,99.30
2018-03-03T15:16:21.743Z,99.10
2018-03-03T15:18:55.042Z,99.70
2018-03-03T15:21:31.312Z,99.40
2018-03-03T15:24:01.979Z,99.10
2018-03-03T15:26:32.512Z,99.10
2018-03-03T15:29:03.613Z,99.20
2018-03-03T15:32:06.788Z,99.50
2018-03-03T15:34:39.241Z,99.60
2018-03-03T15:37:09.706Z,99.90
2018-03-03T15:39:41.292Z,99.60
2018-03-03T15:42:18.199Z,99.60
2018-03-03T15:44:51.577Z,99.70
2018-03-03T15:47:22.996Z,99.90
2018-03-03T15:49:53.896Z,99.90
2018-03-03T15:52:24.043Z,99.90
2018-03-03T15:54:55.242Z,99.90
2018-03-03T15:57:25.606Z,99.90
2018-03-03T15:59:56.168Z,99.90
2018-03-03T16:02:26.226Z,99.90
2018-03-03T16:04:56.376Z,99.90
2018-03-03T16:07:27.302Z,99.90
2018-03-03T16:09:57.837Z,99.90
2018-03-03T16:12:28.676Z,99.90
2018-03-03T16:14:59.038Z,99.90
2018-03-03T16:17:30.332Z,99.90
2018-03-03T16:20:00.659Z,99.90
2018-03-03T16:22:30.745Z,99.90
2018-03-03T16:25:01.564Z,99.90
2018-03-03T16:27:31.694Z,99.90
2018-03-03T16:30:01.947Z,99.90
2018-03-03T16:32:32.163Z,99.90
2018-03-03T16:35:02.560Z,99.90
2018-03-03T16:37:33.213Z,99.90
2018-03-03T16:40:04.573Z,99.90
2018-03-03T16:42:34.640Z,99.90
2018-03-03T16:45:04.886Z,99.90
2018-03-03T16:47:35.237Z,99.90
2018-03-03T16:50:05.484Z,99.90
2018-03-03T16:52:35.666Z,99.90
2018-03-03T16:55:06.064Z,99.90
2018-03-03T16:57:38.792Z,99.90
2018-03-03T17:00:08.938Z,99.90
2018-03-03T17:02:39.084Z,99.90
2018-03-03T17:05:09.155Z,99.90
2018-03-03T17:07:39.972Z,99.90
2018-03-03T17:10:10.015Z,99.90
2018-03-03T17:12:40.560Z,99.90
2018-03-03T17:15:11.116Z,99.90
2018-03-03T17:17:41.334Z,99.90
2018-03-03T17:20:11.531Z,99.90
2018-03-03T17:22:42.001Z,99.90
2018-03-03T17:25:12.131Z,99.90
2018-03-03T17:27:42.344Z,99.90
2018-03-03T17:30:12.903Z,99.90
2018-03-03T17:32:43.738Z,99.90
2018-03-03T17:35:14.646Z,99.90
2018-03-03T17:37:45.011Z,99.90
2018-03-03T17:40:15.045Z,99.90
2018-03-03T17:42:45.124Z,99.90
2018-03-03T17:45:15.284Z,99.90
2018-03-03T17:47:45.368Z,99.90
2018-03-03T17:50:16.429Z,99.90
2018-03-03T17:52:46.973Z,99.90
2018-03-03T17:55:18.811Z,99.90
2018-03-03T17:57:50.463Z,99.90
2018-03-03T18:00:20.535Z,99.90
2018-03-03T18:02:50.679Z,99.90
2018-03-03T18:05:21.915Z,99.90
2018-03-03T18:07:53.052Z,99.90
2018-03-03T18:10:23.368Z,99.90
2018-03-03T18:12:57.451Z,99.90
2018-03-03T18:15:27.492Z,99.90
2018-03-03T18:18:00.083Z,99.90
2018-03-03T18:20:31.355Z,99.90
2018-03-03T18:23:05.042Z,99.90
2018-03-03T18:25:35.911Z,99.90
2018-03-03T18:28:07.956Z,99.90
2018-03-03T18:30:38.925Z,99.90
2018-03-03T18:33:09.331Z,99.90
2018-03-03T18:35:39.372Z,99.90
2018-03-03T18:38:09.431Z,99.90
2018-03-03T18:40:39.861Z,99.90
2018-03-03T18:43:10.159Z,99.90
2018-03-03T18:45:40.368Z,99.90
2018-03-03T18:48:10.893Z,99.90
2018-03-03T18:50:41.217Z,99.90
2018-03-03T18:53:11.332Z,99.90
2018-03-03T18:55:41.807Z,99.90
2018-03-03T18:58:11.901Z,99.90
2018-03-03T19:00:41.993Z,99.90
2018-03-03T19:03:12.431Z,99.90
2018-03-03T19:05:42.635Z,99.90
2018-03-03T19:08:13.023Z,99.90
2018-03-03T19:10:43.760Z,99.90
2018-03-03T19:13:14.599Z,99.90
2018-03-03T19:15:49.118Z,99.90
2018-03-03T19:18:19.955Z,99.90
2018-03-03T19:20:50.900Z,99.90
2018-03-03T19:23:20.976Z,99.90
2018-03-03T19:25:51.741Z,99.90
2018-03-03T19:28:22.256Z,99.90
2018-03-03T19:30:52.692Z,99.90
2018-03-03T19:33:23.057Z,99.90
2018-03-03T19:35:53.704Z,99.90
2018-03-03T19:38:23.712Z,99.90
2018-03-03T19:40:54.161Z,99.90
2018-03-03T19:43:25.083Z,99.90
2018-03-03T19:45:55.357Z,99.90
2018-03-03T19:48:26.491Z,99.90
2018-03-03T19:50:58.134Z,99.90
2018-03-03T19:53:28.477Z,99.90
2018-03-03T19:56:00.208Z,99.90
2018-03-03T19:58:30.651Z,99.90
2018-03-03T20:01:00.672Z,99.90
2018-03-03T20:03:31.297Z,99.90
2018-03-03T20:06:02.130Z,99.90
2018-03-03T20:08:32.312Z,99.90
2018-03-03T20:11:02.377Z,99.90
2018-03-03T20:13:32.446Z,99.90
2018-03-03T20:16:02.700Z,99.90
2018-03-03T20:18:33.235Z,99.90
2018-03-03T20:21:03.409Z,99.90
2018-03-03T20:23:34.398Z,99.90
2018-03-03T20:26:06.999Z,99.90
2018-03-03T20:28:37.055Z,99.90
2018-03-03T20:31:07.308Z,99.90
2018-03-03T20:33:37.700Z,99.90
2018-03-03T20:36:08.772Z,99.90
2018-03-03T20:38:38.908Z,99.90
2018-03-03T20:41:09.926Z,99.90
2018-03-03T20:43:40.380Z,99.90
2018-03-03T20:46:11.444Z,99.90
2018-03-03T20:48:41.582Z,99.90
2018-03-03T20:51:11.917Z,99.90
2018-03-03T20:53:42.075Z,99.90
2018-03-03T20:56:13.827Z,99.90
2018-03-03T20:58:44.771Z,99.90
2018-03-03T21:01:15.720Z,99.90
2018-03-03T21:03:51.190Z,99.90
2018-03-03T21:06:23.027Z,99.90
2018-03-03T21:08:53.179Z,99.90
2018-03-03T21:11:23.608Z,99.90
2018-03-03T21:13:54.654Z,99.90
2018-03-03T21:16:24.795Z,99.90
2018-03-03T21:18:55.080Z,99.90
2018-03-03T21:21:25.477Z,99.90
2018-03-03T21:23:56.381Z,99.90
2018-03-03T21:26:27.140Z,99.90
2018-03-03T21:28:58.258Z,99.90
2018-03-03T21:31:28.676Z,99.90
2018-03-03T21:33:59.312Z,99.90
2018-03-03T21:36:30.233Z,99.90
2018-03-03T21:39:00.621Z,99.90
2018-03-03T21:41:30.824Z,99.90
2018-03-03T21:44:01.163Z,99.90
2018-03-03T21:46:31.580Z,99.90
2018-03-03T21:49:02.649Z,99.90
2018-03-03T21:51:33.325Z,99.90
2018-03-03T21:54:03.650Z,99.90
2018-03-03T21:56:35.298Z,99.90
2018-03-03T21:59:05.777Z,99.90
2018-03-03T22:01:36.511Z,99.90
2018-03-03T22:04:07.066Z,99.90
2018-03-03T22:06:37.401Z,99.90
2018-03-03T22:09:08.443Z,99.90
2018-03-03T22:11:39.694Z,99.90
2018-03-03T22:14:12.587Z,99.90
2018-03-03T22:16:44.340Z,99.90
2018-03-03T22:19:15.598Z,99.90
2018-03-03T22:21:49.278Z,99.90
2018-03-03T22:24:20.484Z,99.90
2018-03-03T22:26:52.613Z,99.90
2018-03-03T22:29:24.096Z,99.90
2018-03-03T22:31:54.523Z,99.90
2018-03-03T22:34:25.203Z,99.90
2018-03-03T22:36:56.555Z,99.90
2018-03-03T22:39:28.407Z,99.90
2018-03-03T22:41:59.845Z,99.90
2018-03-03T22:44:30.127Z,99.90
2018-03-03T22:47:00.203Z,99.90
2018-03-03T22:49:31.872Z,99.90
2018-03-03T22:52:03.159Z,99.90
2018-03-03T22:54:34.355Z,99.90
2018-03-03T22:57:07.119Z,99.90
2018-03-03T22:59:37.497Z,99.90
2018-03-03T23:02:07.803Z,99.90
2018-03-03T23:04:38.520Z,99.90
2018-03-03T23:07:10.325Z,99.90
2018-03-03T23:09:40.546Z,99.90
2018-03-03T23:12:11.336Z,99.90
2018-03-03T23:14:42.596Z,99.90
2018-03-03T23:17:14.270Z,99.90
2018-03-03T23:19:44.709Z,99.90
2018-03-03T23:22:14.963Z,99.90
2018-03-03T23:24:49.470Z,99.90
2018-03-03T23:27:22.792Z,99.90
2018-03-03T23:29:53.116Z,99.90
2018-03-03T23:32:23.940Z,99.90
2018-03-03T23:34:54.930Z,99.90
2018-03-03T23:37:28.397Z,99.90
2018-03-03T23:39:59.908Z,99.90
2018-03-03T23:42:31.029Z,99.90
2018-03-03T23:45:02.074Z,99.90
2018-03-03T23:47:33.257Z,99.90
2018-03-03T23:50:05.292Z,99.90
2018-03-03T23:52:36.027Z,99.90
2018-03-03T23:55:06.566Z,99.90
2018-03-03T23:57:38.138Z,99.90
